sensor_id;sensor_type;location;lat;lon;timestamp;P1;durP1;ratioP1;P2;durP2;ratioP2
28625;SDS011;18905;42.668;23.364;2023-04-03T00:00:55;22.48;;;8.60;;
28625;SDS011;18905;42.668;23.364;2023-04-03T00:03:21;18.15;;;9.43;;
28625;SDS011;18905;42.668;23.364;2023-04-03T00:05:47;22.80;;;8.75;;
28625;SDS011;18905;42.668;23.364;2023-04-03T00:08:12;25.25;;;8.35;;
28625;SDS011;18905;42.668;23.364;2023-04-03T00:10:38;25.65;;;8.45;;
28625;SDS011;18905;42.668;23.364;2023-04-03T00:13:04;15.60;;;6.63;;
28625;SDS011;18905;42.668;23.364;2023-04-03T00:15:30;18.27;;;7.90;;
28625;SDS011;18905;42.668;23.364;2023-04-03T00:17:56;13.98;;;7.88;;
28625;SDS011;18905;42.668;23.364;2023-04-03T00:20:22;13.23;;;7.13;;
28625;SDS011;18905;42.668;23.364;2023-04-03T00:22:47;21.17;;;8.45;;
28625;SDS011;18905;42.668;23.364;2023-04-03T00:25:13;13.98;;;6.65;;
28625;SDS011;18905;42.668;23.364;2023-04-03T00:27:38;13.32;;;6.10;;
28625;SDS011;18905;42.668;23.364;2023-04-03T00:30:05;11.55;;;5.72;;
28625;SDS011;18905;42.668;23.364;2023-04-03T00:32:32;12.55;;;6.00;;
28625;SDS011;18905;42.668;23.364;2023-04-03T00:34:58;16.25;;;7.50;;
28625;SDS011;18905;42.668;23.364;2023-04-03T00:37:23;17.60;;;7.00;;
28625;SDS011;18905;42.668;23.364;2023-04-03T00:39:49;23.50;;;10.38;;
28625;SDS011;18905;42.668;23.364;2023-04-03T00:42:14;15.45;;;7.65;;
28625;SDS011;18905;42.668;23.364;2023-04-03T00:47:05;19.30;;;7.80;;
28625;SDS011;18905;42.668;23.364;2023-04-03T00:49:34;18.40;;;8.43;;
28625;SDS011;18905;42.668;23.364;2023-04-03T00:52:01;14.75;;;7.90;;
28625;SDS011;18905;42.668;23.364;2023-04-03T00:54:27;17.95;;;6.93;;
28625;SDS011;18905;42.668;23.364;2023-04-03T00:56:53;19.70;;;6.82;;
28625;SDS011;18905;42.668;23.364;2023-04-03T00:59:22;15.45;;;6.68;;
28625;SDS011;18905;42.668;23.364;2023-04-03T01:01:52;9.20;;;5.45;;
28625;SDS011;18905;42.668;23.364;2023-04-03T01:04:39;13.70;;;6.53;;
28625;SDS011;18905;42.668;23.364;2023-04-03T01:07:08;13.98;;;6.50;;
28625;SDS011;18905;42.668;23.364;2023-04-03T01:09:35;14.30;;;7.90;;
28625;SDS011;18905;42.668;23.364;2023-04-03T01:12:22;11.38;;;6.60;;
28625;SDS011;18905;42.668;23.364;2023-04-03T01:14:49;12.15;;;6.82;;
28625;SDS011;18905;42.668;23.364;2023-04-03T01:18:01;15.68;;;7.75;;
28625;SDS011;18905;42.668;23.364;2023-04-03T01:23:05;15.38;;;7.75;;
28625;SDS011;18905;42.668;23.364;2023-04-03T01:25:31;20.05;;;7.97;;
28625;SDS011;18905;42.668;23.364;2023-04-03T01:27:57;12.30;;;7.00;;
28625;SDS011;18905;42.668;23.364;2023-04-03T01:30:24;14.63;;;6.75;;
28625;SDS011;18905;42.668;23.364;2023-04-03T01:32:55;14.68;;;6.07;;
28625;SDS011;18905;42.668;23.364;2023-04-03T01:35:20;18.08;;;5.63;;
28625;SDS011;18905;42.668;23.364;2023-04-03T01:37:46;10.05;;;4.80;;
28625;SDS011;18905;42.668;23.364;2023-04-03T01:40:11;16.45;;;6.72;;
28625;SDS011;18905;42.668;23.364;2023-04-03T01:42:37;15.05;;;6.03;;
28625;SDS011;18905;42.668;23.364;2023-04-03T01:45:02;12.40;;;6.05;;
28625;SDS011;18905;42.668;23.364;2023-04-03T01:47:28;16.42;;;6.05;;
28625;SDS011;18905;42.668;23.364;2023-04-03T01:49:54;15.55;;;5.90;;
28625;SDS011;18905;42.668;23.364;2023-04-03T01:52:19;17.92;;;8.13;;
28625;SDS011;18905;42.668;23.364;2023-04-03T01:54:44;22.58;;;9.88;;
28625;SDS011;18905;42.668;23.364;2023-04-03T01:57:10;31.55;;;9.98;;
28625;SDS011;18905;42.668;23.364;2023-04-03T01:59:35;27.20;;;11.52;;
28625;SDS011;18905;42.668;23.364;2023-04-03T02:02:01;24.63;;;11.00;;
28625;SDS011;18905;42.668;23.364;2023-04-03T02:04:26;33.80;;;11.35;;
28625;SDS011;18905;42.668;23.364;2023-04-03T02:06:52;24.63;;;12.52;;
28625;SDS011;18905;42.668;23.364;2023-04-03T02:09:17;27.25;;;11.60;;
28625;SDS011;18905;42.668;23.364;2023-04-03T02:11:42;26.40;;;12.20;;
28625;SDS011;18905;42.668;23.364;2023-04-03T02:14:08;23.40;;;10.80;;
28625;SDS011;18905;42.668;23.364;2023-04-03T02:16:33;20.67;;;9.57;;
28625;SDS011;18905;42.668;23.364;2023-04-03T02:18:59;20.25;;;10.52;;
28625;SDS011;18905;42.668;23.364;2023-04-03T02:21:24;20.27;;;9.98;;
28625;SDS011;18905;42.668;23.364;2023-04-03T02:23:50;18.50;;;9.90;;
28625;SDS011;18905;42.668;23.364;2023-04-03T02:26:15;22.52;;;10.13;;
28625;SDS011;18905;42.668;23.364;2023-04-03T02:28:41;20.83;;;10.13;;
28625;SDS011;18905;42.668;23.364;2023-04-03T02:31:08;21.98;;;10.50;;
28625;SDS011;18905;42.668;23.364;2023-04-03T02:33:35;21.30;;;9.75;;
28625;SDS011;18905;42.668;23.364;2023-04-03T02:36:01;19.13;;;9.13;;
28625;SDS011;18905;42.668;23.364;2023-04-03T02:38:28;20.10;;;9.57;;
28625;SDS011;18905;42.668;23.364;2023-04-03T02:40:59;19.23;;;10.25;;
28625;SDS011;18905;42.668;23.364;2023-04-03T02:43:25;21.88;;;9.18;;
28625;SDS011;18905;42.668;23.364;2023-04-03T02:45:51;18.55;;;8.88;;
28625;SDS011;18905;42.668;23.364;2023-04-03T02:48:16;17.95;;;8.68;;
28625;SDS011;18905;42.668;23.364;2023-04-03T02:50:41;15.50;;;7.25;;
28625;SDS011;18905;42.668;23.364;2023-04-03T02:53:07;19.65;;;7.85;;
28625;SDS011;18905;42.668;23.364;2023-04-03T02:55:32;14.55;;;8.07;;
28625;SDS011;18905;42.668;23.364;2023-04-03T02:57:58;16.30;;;8.07;;
28625;SDS011;18905;42.668;23.364;2023-04-03T03:00:23;19.38;;;8.27;;
28625;SDS011;18905;42.668;23.364;2023-04-03T03:02:49;20.63;;;8.20;;
28625;SDS011;18905;42.668;23.364;2023-04-03T03:05:14;17.67;;;7.57;;
28625;SDS011;18905;42.668;23.364;2023-04-03T03:07:40;16.08;;;7.53;;
28625;SDS011;18905;42.668;23.364;2023-04-03T03:10:06;19.20;;;7.70;;
28625;SDS011;18905;42.668;23.364;2023-04-03T03:12:31;18.83;;;7.53;;
28625;SDS011;18905;42.668;23.364;2023-04-03T03:14:57;19.55;;;7.10;;
28625;SDS011;18905;42.668;23.364;2023-04-03T03:17:22;19.35;;;7.78;;
28625;SDS011;18905;42.668;23.364;2023-04-03T03:19:48;19.60;;;7.88;;
28625;SDS011;18905;42.668;23.364;2023-04-03T03:22:13;14.43;;;6.30;;
28625;SDS011;18905;42.668;23.364;2023-04-03T03:24:38;13.57;;;6.72;;
28625;SDS011;18905;42.668;23.364;2023-04-03T03:27:04;14.70;;;6.25;;
28625;SDS011;18905;42.668;23.364;2023-04-03T03:29:29;14.98;;;5.40;;
28625;SDS011;18905;42.668;23.364;2023-04-03T03:31:55;23.83;;;5.97;;
28625;SDS011;18905;42.668;23.364;2023-04-03T03:34:20;13.52;;;6.10;;
28625;SDS011;18905;42.668;23.364;2023-04-03T03:36:46;18.63;;;7.00;;
28625;SDS011;18905;42.668;23.364;2023-04-03T03:39:11;21.30;;;7.40;;
28625;SDS011;18905;42.668;23.364;2023-04-03T03:41:37;22.58;;;7.28;;
28625;SDS011;18905;42.668;23.364;2023-04-03T03:44:02;12.30;;;6.15;;
28625;SDS011;18905;42.668;23.364;2023-04-03T03:46:27;11.85;;;5.43;;
28625;SDS011;18905;42.668;23.364;2023-04-03T03:48:53;13.95;;;6.13;;
28625;SDS011;18905;42.668;23.364;2023-04-03T03:51:18;17.75;;;7.07;;
28625;SDS011;18905;42.668;23.364;2023-04-03T03:53:44;19.77;;;6.68;;
28625;SDS011;18905;42.668;23.364;2023-04-03T03:56:10;25.05;;;7.20;;
28625;SDS011;18905;42.668;23.364;2023-04-03T03:58:35;24.38;;;7.80;;
28625;SDS011;18905;42.668;23.364;2023-04-03T04:01:04;22.30;;;7.38;;
28625;SDS011;18905;42.668;23.364;2023-04-03T04:03:31;22.88;;;7.85;;
28625;SDS011;18905;42.668;23.364;2023-04-03T04:05:57;12.98;;;6.53;;
28625;SDS011;18905;42.668;23.364;2023-04-03T04:08:22;23.92;;;7.43;;
28625;SDS011;18905;42.668;23.364;2023-04-03T04:10:48;23.50;;;7.65;;
28625;SDS011;18905;42.668;23.364;2023-04-03T04:13:13;18.42;;;6.50;;
28625;SDS011;18905;42.668;23.364;2023-04-03T04:15:39;26.38;;;7.88;;
28625;SDS011;18905;42.668;23.364;2023-04-03T04:18:05;14.70;;;6.30;;
28625;SDS011;18905;42.668;23.364;2023-04-03T04:20:30;13.90;;;6.13;;
28625;SDS011;18905;42.668;23.364;2023-04-03T04:22:56;23.67;;;6.65;;
28625;SDS011;18905;42.668;23.364;2023-04-03T04:25:21;18.42;;;6.03;;
28625;SDS011;18905;42.668;23.364;2023-04-03T04:27:46;17.27;;;6.38;;
28625;SDS011;18905;42.668;23.364;2023-04-03T04:30:12;27.30;;;6.80;;
28625;SDS011;18905;42.668;23.364;2023-04-03T04:32:38;16.02;;;6.45;;
28625;SDS011;18905;42.668;23.364;2023-04-03T04:35:03;18.88;;;7.47;;
28625;SDS011;18905;42.668;23.364;2023-04-03T04:37:29;28.85;;;8.20;;
28625;SDS011;18905;42.668;23.364;2023-04-03T04:39:55;32.03;;;8.00;;
28625;SDS011;18905;42.668;23.364;2023-04-03T04:42:20;30.60;;;7.93;;
28625;SDS011;18905;42.668;23.364;2023-04-03T04:44:46;26.40;;;8.10;;
28625;SDS011;18905;42.668;23.364;2023-04-03T04:47:11;25.67;;;8.30;;
28625;SDS011;18905;42.668;23.364;2023-04-03T04:49:37;25.05;;;7.88;;
28625;SDS011;18905;42.668;23.364;2023-04-03T04:52:02;24.13;;;8.13;;
28625;SDS011;18905;42.668;23.364;2023-04-03T04:54:28;31.65;;;7.70;;
28625;SDS011;18905;42.668;23.364;2023-04-03T04:56:53;25.92;;;8.20;;
28625;SDS011;18905;42.668;23.364;2023-04-03T04:59:19;16.55;;;8.07;;
28625;SDS011;18905;42.668;23.364;2023-04-03T05:01:44;34.47;;;8.02;;
28625;SDS011;18905;42.668;23.364;2023-04-03T05:04:10;29.27;;;8.80;;
28625;SDS011;18905;42.668;23.364;2023-04-03T05:06:37;26.90;;;8.82;;
28625;SDS011;18905;42.668;23.364;2023-04-03T05:09:03;27.63;;;8.38;;
28625;SDS011;18905;42.668;23.364;2023-04-03T05:11:31;30.48;;;9.00;;
28625;SDS011;18905;42.668;23.364;2023-04-03T05:13:56;40.58;;;9.93;;
28625;SDS011;18905;42.668;23.364;2023-04-03T05:16:22;29.30;;;8.68;;
28625;SDS011;18905;42.668;23.364;2023-04-03T05:18:47;27.65;;;8.57;;
28625;SDS011;18905;42.668;23.364;2023-04-03T05:21:13;24.70;;;9.10;;
28625;SDS011;18905;42.668;23.364;2023-04-03T05:23:38;24.98;;;7.90;;
28625;SDS011;18905;42.668;23.364;2023-04-03T05:26:04;27.40;;;7.82;;
28625;SDS011;18905;42.668;23.364;2023-04-03T05:28:29;24.02;;;8.30;;
28625;SDS011;18905;42.668;23.364;2023-04-03T05:30:58;19.70;;;7.63;;
28625;SDS011;18905;42.668;23.364;2023-04-03T05:33:24;25.90;;;6.80;;
28625;SDS011;18905;42.668;23.364;2023-04-03T05:35:51;17.33;;;6.47;;
28625;SDS011;18905;42.668;23.364;2023-04-03T05:38:17;21.70;;;6.85;;
28625;SDS011;18905;42.668;23.364;2023-04-03T05:40:42;14.40;;;6.50;;
28625;SDS011;18905;42.668;23.364;2023-04-03T05:43:08;18.70;;;7.28;;
28625;SDS011;18905;42.668;23.364;2023-04-03T05:45:33;21.88;;;8.10;;
28625;SDS011;18905;42.668;23.364;2023-04-03T05:47:59;16.90;;;8.10;;
28625;SDS011;18905;42.668;23.364;2023-04-03T05:50:25;19.90;;;8.10;;
28625;SDS011;18905;42.668;23.364;2023-04-03T05:52:51;25.70;;;9.35;;
28625;SDS011;18905;42.668;23.364;2023-04-03T05:55:20;27.40;;;8.95;;
28625;SDS011;18905;42.668;23.364;2023-04-03T05:57:45;18.25;;;8.52;;
28625;SDS011;18905;42.668;23.364;2023-04-03T06:00:13;32.50;;;9.90;;
28625;SDS011;18905;42.668;23.364;2023-04-03T06:02:40;24.58;;;10.18;;
28625;SDS011;18905;42.668;23.364;2023-04-03T06:05:07;19.38;;;10.10;;
28625;SDS011;18905;42.668;23.364;2023-04-03T06:07:37;36.63;;;12.57;;
28625;SDS011;18905;42.668;23.364;2023-04-03T06:10:02;40.92;;;14.70;;
28625;SDS011;18905;42.668;23.364;2023-04-03T06:12:29;53.53;;;18.58;;
28625;SDS011;18905;42.668;23.364;2023-04-03T06:14:55;55.20;;;20.98;;
28625;SDS011;18905;42.668;23.364;2023-04-03T06:17:20;49.05;;;20.23;;
28625;SDS011;18905;42.668;23.364;2023-04-03T06:19:48;48.15;;;21.80;;
28625;SDS011;18905;42.668;23.364;2023-04-03T06:22:14;57.70;;;18.77;;
28625;SDS011;18905;42.668;23.364;2023-04-03T06:24:40;35.17;;;16.38;;
28625;SDS011;18905;42.668;23.364;2023-04-03T06:27:10;36.28;;;15.90;;
28625;SDS011;18905;42.668;23.364;2023-04-03T06:29:36;49.22;;;17.67;;
28625;SDS011;18905;42.668;23.364;2023-04-03T06:32:05;46.45;;;19.73;;
28625;SDS011;18905;42.668;23.364;2023-04-03T06:34:31;50.45;;;22.85;;
28625;SDS011;18905;42.668;23.364;2023-04-03T06:36:59;49.75;;;23.33;;
28625;SDS011;18905;42.668;23.364;2023-04-03T06:39:25;50.60;;;20.85;;
28625;SDS011;18905;42.668;23.364;2023-04-03T06:41:52;61.30;;;30.98;;
28625;SDS011;18905;42.668;23.364;2023-04-03T06:44:18;55.90;;;29.92;;
28625;SDS011;18905;42.668;23.364;2023-04-03T06:46:45;56.00;;;28.17;;
28625;SDS011;18905;42.668;23.364;2023-04-03T06:49:11;59.72;;;32.03;;
28625;SDS011;18905;42.668;23.364;2023-04-03T06:51:39;44.80;;;22.83;;
28625;SDS011;18905;42.668;23.364;2023-04-03T06:54:06;46.58;;;22.50;;
28625;SDS011;18905;42.668;23.364;2023-04-03T06:56:35;52.88;;;22.95;;
28625;SDS011;18905;42.668;23.364;2023-04-03T06:59:10;58.75;;;21.85;;
28625;SDS011;18905;42.668;23.364;2023-04-03T07:01:46;47.65;;;24.80;;
28625;SDS011;18905;42.668;23.364;2023-04-03T07:04:59;61.13;;;24.48;;
28625;SDS011;18905;42.668;23.364;2023-04-03T07:08:10;47.33;;;23.63;;
28625;SDS011;18905;42.668;23.364;2023-04-03T07:11:15;45.17;;;24.35;;
28625;SDS011;18905;42.668;23.364;2023-04-03T07:14:46;53.97;;;22.45;;
28625;SDS011;18905;42.668;23.364;2023-04-03T07:17:50;48.78;;;22.83;;
28625;SDS011;18905;42.668;23.364;2023-04-03T07:20:36;49.95;;;21.05;;
28625;SDS011;18905;42.668;23.364;2023-04-03T07:23:51;44.95;;;19.45;;
28625;SDS011;18905;42.668;23.364;2023-04-03T07:27:33;48.03;;;17.40;;
28625;SDS011;18905;42.668;23.364;2023-04-03T07:30:18;33.30;;;15.60;;
28625;SDS011;18905;42.668;23.364;2023-04-03T07:33:41;34.78;;;15.52;;
28625;SDS011;18905;42.668;23.364;2023-04-03T07:36:34;43.60;;;18.58;;
28625;SDS011;18905;42.668;23.364;2023-04-03T07:39:46;41.92;;;19.63;;
28625;SDS011;18905;42.668;23.364;2023-04-03T07:42:35;40.42;;;18.92;;
28625;SDS011;18905;42.668;23.364;2023-04-03T07:45:07;40.72;;;19.38;;
28625;SDS011;18905;42.668;23.364;2023-04-03T07:47:33;56.33;;;22.55;;
28625;SDS011;18905;42.668;23.364;2023-04-03T07:49:58;50.47;;;25.85;;
28625;SDS011;18905;42.668;23.364;2023-04-03T07:52:24;57.42;;;28.50;;
28625;SDS011;18905;42.668;23.364;2023-04-03T07:54:50;61.30;;;29.42;;
28625;SDS011;18905;42.668;23.364;2023-04-03T07:57:16;63.28;;;29.45;;
28625;SDS011;18905;42.668;23.364;2023-04-03T07:59:41;47.85;;;27.08;;
28625;SDS011;18905;42.668;23.364;2023-04-03T08:02:11;46.67;;;26.60;;
28625;SDS011;18905;42.668;23.364;2023-04-03T08:04:37;51.30;;;25.90;;
28625;SDS011;18905;42.668;23.364;2023-04-03T08:07:02;51.83;;;23.85;;
28625;SDS011;18905;42.668;23.364;2023-04-03T08:09:28;48.08;;;19.60;;
28625;SDS011;18905;42.668;23.364;2023-04-03T08:11:53;41.90;;;20.10;;
28625;SDS011;18905;42.668;23.364;2023-04-03T08:14:19;36.20;;;20.08;;
28625;SDS011;18905;42.668;23.364;2023-04-03T08:16:46;37.35;;;17.83;;
28625;SDS011;18905;42.668;23.364;2023-04-03T08:19:13;41.78;;;18.48;;
28625;SDS011;18905;42.668;23.364;2023-04-03T08:21:40;32.95;;;18.52;;
28625;SDS011;18905;42.668;23.364;2023-04-03T08:24:07;41.80;;;19.63;;
28625;SDS011;18905;42.668;23.364;2023-04-03T08:26:33;42.88;;;19.65;;
28625;SDS011;18905;42.668;23.364;2023-04-03T08:28:59;32.65;;;18.00;;
28625;SDS011;18905;42.668;23.364;2023-04-03T08:31:24;41.97;;;19.33;;
28625;SDS011;18905;42.668;23.364;2023-04-03T08:33:50;43.50;;;18.25;;
28625;SDS011;18905;42.668;23.364;2023-04-03T08:36:23;38.17;;;18.50;;
28625;SDS011;18905;42.668;23.364;2023-04-03T08:46:38;37.20;;;16.05;;
28625;SDS011;18905;42.668;23.364;2023-04-03T08:49:21;38.75;;;16.52;;
28625;SDS011;18905;42.668;23.364;2023-04-03T08:51:52;30.13;;;16.58;;
28625;SDS011;18905;42.668;23.364;2023-04-03T08:55:02;34.70;;;16.73;;
28625;SDS011;18905;42.668;23.364;2023-04-03T08:57:11;31.08;;;16.05;;
28625;SDS011;18905;42.668;23.364;2023-04-03T08:59:37;46.13;;;16.85;;
28625;SDS011;18905;42.668;23.364;2023-04-03T09:02:16;30.95;;;15.93;;
28625;SDS011;18905;42.668;23.364;2023-04-03T09:04:48;39.30;;;17.10;;
28625;SDS011;18905;42.668;23.364;2023-04-03T09:07:15;34.25;;;15.95;;
28625;SDS011;18905;42.668;23.364;2023-04-03T09:09:47;46.10;;;16.45;;
28625;SDS011;18905;42.668;23.364;2023-04-03T09:12:21;40.30;;;16.17;;
28625;SDS011;18905;42.668;23.364;2023-04-03T09:19:58;28.92;;;16.08;;
28625;SDS011;18905;42.668;23.364;2023-04-03T09:22:41;42.88;;;16.45;;
28625;SDS011;18905;42.668;23.364;2023-04-03T09:27:43;43.05;;;15.65;;
28625;SDS011;18905;42.668;23.364;2023-04-03T09:30:17;31.98;;;15.02;;
28625;SDS011;18905;42.668;23.364;2023-04-03T09:32:45;33.30;;;13.60;;
28625;SDS011;18905;42.668;23.364;2023-04-03T09:35:31;32.70;;;14.70;;
28625;SDS011;18905;42.668;23.364;2023-04-03T09:42:54;33.80;;;15.25;;
28625;SDS011;18905;42.668;23.364;2023-04-03T09:45:31;33.72;;;13.88;;
28625;SDS011;18905;42.668;23.364;2023-04-03T09:53:41;34.60;;;14.20;;
28625;SDS011;18905;42.668;23.364;2023-04-03T09:56:29;25.67;;;11.85;;
28625;SDS011;18905;42.668;23.364;2023-04-03T10:01:30;31.27;;;12.18;;
28625;SDS011;18905;42.668;23.364;2023-04-03T10:04:16;26.38;;;11.35;;
28625;SDS011;18905;42.668;23.364;2023-04-03T10:06:44;28.98;;;9.95;;
28625;SDS011;18905;42.668;23.364;2023-04-03T10:09:25;21.40;;;10.07;;
28625;SDS011;18905;42.668;23.364;2023-04-03T10:14:26;16.67;;;8.15;;
28625;SDS011;18905;42.668;23.364;2023-04-03T10:19:34;21.38;;;9.45;;
28625;SDS011;18905;42.668;23.364;2023-04-03T10:22:19;22.55;;;8.75;;
28625;SDS011;18905;42.668;23.364;2023-04-03T10:24:52;23.48;;;8.38;;
28625;SDS011;18905;42.668;23.364;2023-04-03T10:33:08;20.00;;;6.70;;
28625;SDS011;18905;42.668;23.364;2023-04-03T10:51:48;21.63;;;6.93;;
28625;SDS011;18905;42.668;23.364;2023-04-03T10:54:39;16.90;;;5.47;;
28625;SDS011;18905;42.668;23.364;2023-04-03T10:57:13;14.68;;;5.75;;
28625;SDS011;18905;42.668;23.364;2023-04-03T11:02:11;17.40;;;5.07;;
28625;SDS011;18905;42.668;23.364;2023-04-03T11:04:40;9.80;;;4.38;;
28625;SDS011;18905;42.668;23.364;2023-04-03T11:09:46;6.50;;;3.30;;
28625;SDS011;18905;42.668;23.364;2023-04-03T11:14:46;8.43;;;3.17;;
28625;SDS011;18905;42.668;23.364;2023-04-03T11:22:42;16.38;;;6.60;;
28625;SDS011;18905;42.668;23.364;2023-04-03T11:25:15;15.10;;;6.45;;
28625;SDS011;18905;42.668;23.364;2023-04-03T11:27:49;15.93;;;6.15;;
28625;SDS011;18905;42.668;23.364;2023-04-03T11:30:46;6.70;;;3.38;;
28625;SDS011;18905;42.668;23.364;2023-04-03T11:36:32;6.45;;;2.88;;
28625;SDS011;18905;42.668;23.364;2023-04-03T11:39:10;11.50;;;3.25;;
28625;SDS011;18905;42.668;23.364;2023-04-03T11:41:49;4.43;;;3.17;;
28625;SDS011;18905;42.668;23.364;2023-04-03T11:44:29;7.28;;;3.15;;
28625;SDS011;18905;42.668;23.364;2023-04-03T11:46:57;6.53;;;3.60;;
28625;SDS011;18905;42.668;23.364;2023-04-03T12:06:41;3.85;;;2.40;;
28625;SDS011;18905;42.668;23.364;2023-04-03T12:11:13;10.25;;;3.38;;
28625;SDS011;18905;42.668;23.364;2023-04-03T12:26:43;5.28;;;3.20;;
28625;SDS011;18905;42.668;23.364;2023-04-03T12:45:39;10.45;;;5.03;;
28625;SDS011;18905;42.668;23.364;2023-04-03T12:48:31;6.25;;;4.15;;
28625;SDS011;18905;42.668;23.364;2023-04-03T12:50:59;9.30;;;5.55;;
28625;SDS011;18905;42.668;23.364;2023-04-03T12:53:26;9.25;;;5.65;;
28625;SDS011;18905;42.668;23.364;2023-04-03T12:55:55;11.35;;;6.20;;
28625;SDS011;18905;42.668;23.364;2023-04-03T13:01:09;11.50;;;7.25;;
28625;SDS011;18905;42.668;23.364;2023-04-03T13:03:40;12.63;;;7.32;;
28625;SDS011;18905;42.668;23.364;2023-04-03T13:06:19;12.18;;;7.32;;
28625;SDS011;18905;42.668;23.364;2023-04-03T13:08:56;11.68;;;6.85;;
28625;SDS011;18905;42.668;23.364;2023-04-03T13:11:25;13.82;;;7.95;;
28625;SDS011;18905;42.668;23.364;2023-04-03T13:13:56;10.80;;;7.18;;
28625;SDS011;18905;42.668;23.364;2023-04-03T13:16:25;8.35;;;6.30;;
28625;SDS011;18905;42.668;23.364;2023-04-03T13:18:52;10.43;;;6.55;;
28625;SDS011;18905;42.668;23.364;2023-04-03T13:21:19;15.93;;;7.80;;
28625;SDS011;18905;42.668;23.364;2023-04-03T13:23:57;13.80;;;8.75;;
28625;SDS011;18905;42.668;23.364;2023-04-03T13:26:29;15.70;;;8.60;;
28625;SDS011;18905;42.668;23.364;2023-04-03T13:29:03;14.20;;;8.85;;
28625;SDS011;18905;42.668;23.364;2023-04-03T13:31:33;16.80;;;9.13;;
28625;SDS011;18905;42.668;23.364;2023-04-03T13:34:10;13.10;;;8.85;;
28625;SDS011;18905;42.668;23.364;2023-04-03T13:41:45;13.57;;;8.82;;
28625;SDS011;18905;42.668;23.364;2023-04-03T13:44:35;15.80;;;10.50;;
28625;SDS011;18905;42.668;23.364;2023-04-03T13:49:40;15.13;;;8.82;;
28625;SDS011;18905;42.668;23.364;2023-04-03T13:52:28;10.88;;;7.18;;
28625;SDS011;18905;42.668;23.364;2023-04-03T13:57:53;11.02;;;7.25;;
28625;SDS011;18905;42.668;23.364;2023-04-03T14:00:39;13.15;;;7.30;;
28625;SDS011;18905;42.668;23.364;2023-04-03T14:04:00;9.95;;;7.00;;
28625;SDS011;18905;42.668;23.364;2023-04-03T14:06:29;10.90;;;7.05;;
28625;SDS011;18905;42.668;23.364;2023-04-03T14:08:54;12.77;;;7.25;;
28625;SDS011;18905;42.668;23.364;2023-04-03T14:11:21;12.05;;;7.38;;
28625;SDS011;18905;42.668;23.364;2023-04-03T14:13:49;10.65;;;7.25;;
28625;SDS011;18905;42.668;23.364;2023-04-03T14:16:16;10.88;;;6.57;;
28625;SDS011;18905;42.668;23.364;2023-04-03T14:18:47;12.95;;;6.57;;
28625;SDS011;18905;42.668;23.364;2023-04-03T14:21:15;8.77;;;5.60;;
28625;SDS011;18905;42.668;23.364;2023-04-03T14:23:43;11.80;;;6.40;;
28625;SDS011;18905;42.668;23.364;2023-04-03T14:26:12;9.50;;;5.57;;
28625;SDS011;18905;42.668;23.364;2023-04-03T14:28:41;7.45;;;5.43;;
28625;SDS011;18905;42.668;23.364;2023-04-03T14:31:08;8.02;;;5.72;;
28625;SDS011;18905;42.668;23.364;2023-04-03T14:33:35;7.70;;;5.50;;
28625;SDS011;18905;42.668;23.364;2023-04-03T14:36:05;7.63;;;5.60;;
28625;SDS011;18905;42.668;23.364;2023-04-03T14:38:38;9.15;;;6.15;;
28625;SDS011;18905;42.668;23.364;2023-04-03T14:41:03;9.57;;;6.03;;
28625;SDS011;18905;42.668;23.364;2023-04-03T14:43:29;11.55;;;6.03;;
28625;SDS011;18905;42.668;23.364;2023-04-03T14:45:54;6.65;;;5.15;;
28625;SDS011;18905;42.668;23.364;2023-04-03T14:48:24;9.07;;;5.18;;
28625;SDS011;18905;42.668;23.364;2023-04-03T14:50:52;6.97;;;5.10;;
28625;SDS011;18905;42.668;23.364;2023-04-03T14:53:18;7.13;;;4.38;;
28625;SDS011;18905;42.668;23.364;2023-04-03T14:55:47;5.38;;;3.80;;
28625;SDS011;18905;42.668;23.364;2023-04-03T14:58:15;4.85;;;4.03;;
28625;SDS011;18905;42.668;23.364;2023-04-03T15:00:42;6.25;;;4.63;;
28625;SDS011;18905;42.668;23.364;2023-04-03T15:03:18;6.32;;;4.00;;
28625;SDS011;18905;42.668;23.364;2023-04-03T15:05:47;6.88;;;4.35;;
28625;SDS011;18905;42.668;23.364;2023-04-03T15:08:20;7.05;;;3.90;;
28625;SDS011;18905;42.668;23.364;2023-04-03T15:10:48;9.52;;;4.07;;
28625;SDS011;18905;42.668;23.364;2023-04-03T15:13:15;7.45;;;4.68;;
28625;SDS011;18905;42.668;23.364;2023-04-03T15:15:40;8.98;;;4.53;;
28625;SDS011;18905;42.668;23.364;2023-04-03T15:18:09;9.23;;;4.70;;
28625;SDS011;18905;42.668;23.364;2023-04-03T15:20:38;6.28;;;4.38;;
28625;SDS011;18905;42.668;23.364;2023-04-03T15:23:04;8.43;;;4.68;;
28625;SDS011;18905;42.668;23.364;2023-04-03T15:25:31;8.05;;;4.10;;
28625;SDS011;18905;42.668;23.364;2023-04-03T15:27:57;8.75;;;4.70;;
28625;SDS011;18905;42.668;23.364;2023-04-03T15:30:23;5.22;;;4.35;;
28625;SDS011;18905;42.668;23.364;2023-04-03T15:32:49;5.50;;;4.07;;
28625;SDS011;18905;42.668;23.364;2023-04-03T15:35:15;8.02;;;4.20;;
28625;SDS011;18905;42.668;23.364;2023-04-03T15:37:40;11.48;;;3.72;;
28625;SDS011;18905;42.668;23.364;2023-04-03T15:40:06;7.63;;;4.50;;
28625;SDS011;18905;42.668;23.364;2023-04-03T15:42:32;5.13;;;3.38;;
28625;SDS011;18905;42.668;23.364;2023-04-03T15:44:58;8.95;;;4.10;;
28625;SDS011;18905;42.668;23.364;2023-04-03T15:47:24;4.40;;;3.08;;
28625;SDS011;18905;42.668;23.364;2023-04-03T15:49:51;5.28;;;4.20;;
28625;SDS011;18905;42.668;23.364;2023-04-03T15:52:18;9.48;;;4.20;;
28625;SDS011;18905;42.668;23.364;2023-04-03T15:54:43;8.20;;;4.38;;
28625;SDS011;18905;42.668;23.364;2023-04-03T15:57:09;6.50;;;4.93;;
28625;SDS011;18905;42.668;23.364;2023-04-03T15:59:34;8.02;;;4.90;;
28625;SDS011;18905;42.668;23.364;2023-04-03T16:01:59;9.50;;;5.38;;
28625;SDS011;18905;42.668;23.364;2023-04-03T16:04:28;10.13;;;4.75;;
28625;SDS011;18905;42.668;23.364;2023-04-03T16:06:54;8.23;;;5.63;;
28625;SDS011;18905;42.668;23.364;2023-04-03T16:09:20;9.88;;;5.85;;
28625;SDS011;18905;42.668;23.364;2023-04-03T16:11:45;10.32;;;6.50;;
28625;SDS011;18905;42.668;23.364;2023-04-03T16:14:11;10.93;;;5.30;;
28625;SDS011;18905;42.668;23.364;2023-04-03T16:16:37;7.53;;;5.03;;
28625;SDS011;18905;42.668;23.364;2023-04-03T16:19:03;5.93;;;3.80;;
28625;SDS011;18905;42.668;23.364;2023-04-03T16:21:30;5.13;;;3.72;;
28625;SDS011;18905;42.668;23.364;2023-04-03T16:23:57;14.32;;;4.47;;
28625;SDS011;18905;42.668;23.364;2023-04-03T16:26:23;8.02;;;4.40;;
28625;SDS011;18905;42.668;23.364;2023-04-03T16:28:49;8.57;;;4.35;;
28625;SDS011;18905;42.668;23.364;2023-04-03T16:31:14;8.95;;;5.28;;
28625;SDS011;18905;42.668;23.364;2023-04-03T16:33:40;6.88;;;4.55;;
28625;SDS011;18905;42.668;23.364;2023-04-03T16:36:05;9.85;;;5.28;;
28625;SDS011;18905;42.668;23.364;2023-04-03T16:38:31;9.25;;;5.03;;
28625;SDS011;18905;42.668;23.364;2023-04-03T16:40:57;9.77;;;5.80;;
28625;SDS011;18905;42.668;23.364;2023-04-03T16:43:24;11.50;;;5.97;;
28625;SDS011;18905;42.668;23.364;2023-04-03T16:45:50;12.23;;;6.22;;
28625;SDS011;18905;42.668;23.364;2023-04-03T16:48:16;10.20;;;6.55;;
28625;SDS011;18905;42.668;23.364;2023-04-03T16:50:42;14.05;;;8.02;;
28625;SDS011;18905;42.668;23.364;2023-04-03T16:53:12;10.27;;;7.10;;
28625;SDS011;18905;42.668;23.364;2023-04-03T16:55:38;11.02;;;7.32;;